Baker, Minnesota
Current Conditions -  °F | °C
As of 5:51 PM on Friday 19 Dec 2014 (Local Time) from KJKJ Reporting Station
Haze Haze  
Wind Chill: 20°   Ceiling: 700
Heat Index: 30°   Visibility: 5mi
Dew Point: 30°   Wind: 13mph
Humidity: 100%   Direction: 170°S
Pressure: 30.05"   Gusts: NA
Location:  46.71°N, 96.55°W
Report Text: KJKJ 192351Z AUTO 17011KT 5SM BR OVC007 M01/M01 A3005 RMK AO2
Loading
Personal Weather Stations






























Interactive Weather Map New forecast layout! Learn more

10-Day Weather Forecast

Advertisements
Track Severe Weather on mobile